LiveATC.Net - Listen to live air traffic control over the Internet!


ICAO: MMQT  IATA: QRO   Airport: Queretaro Intercontinental Airport
City: Queretaro
Country: Mexico   Continent: North America
MMQT METAR Weather: MMQT 222332Z 20013G25KT 1SM HZ BKN018 BKN080 OVC200 27/05 A3007
MMQT Flight Activity (FlightAware)

MMQT Tower/App
Feed Status: DOWN
Last heard on: 2019-05-22 23:33:02 (0 days 0 hours 22 minutes ago)
MMQT Tower/App Audio Archives
FacilityFrequency
Queretaro Approach127.200
Queretaro Tower118.950

NOTICE

Unauthorized use prohibited. See LiveATC.net Terms of Service


Find LiveATC Audio Streams


Airport/ARTCC Code

Frequency Search
(e.g., 124.400, 128.75)
Site-wide search
 


Browse LiveATC Feeds
Top 50 LiveATC Feeds
LiveATC Feed Map
Bad Weather Areas

LiveATC FAQ
Offer LiveATC feed
Contact LiveATC.net
Press Inquiries

LiveATC on iPhone
LiveATC on Android

Windows Phone
Windows 8/10

LiveATC Mobile
(Mobile browser)

ATC Audio Archives
Interesting Recordings

LiveATC Forums


Home Page
About LiveATC.net
Make a Donation
Terms of Use
Privacy Policy

Canadian Air Freqs

AIRMETs/SIGMETs

FAA Airport Status
Nat'l Airspace Status
Arrival Demand Charts


Server Software By:
Icecast.org
Liquidsoap